Time;durP1;ratioP1;P1;durP2;ratioP2;P2;SDS_P1;SDS_P2;PMS_P1;PMS_P2;Temp;Humidity;BMP_temperature;BMP_pressure;BME280_temperature;BME280_humidity;BME280_pressure;Samples;Min_cycle;Max_cycle;Signal;HPM_P1;HPM_P2
2021/11/22 00:02:23;;;;;;;1.60;0.20;;;4.80;92.00;;;;;;4894976;29;20060;-80
2021/11/22 00:04:48;;;;;;;1.20;0.30;;;4.80;92.00;;;;;;4895309;29;20060;-82
2021/11/22 00:07:16;;;;;;;0.20;0.20;;;4.80;92.00;;;;;;4877260;29;20033;-81
2021/11/22 00:09:43;;;;;;;0.47;0.20;;;4.80;92.00;;;;;;4894175;29;20041;-81
2021/11/22 00:12:10;;;;;;;0.55;0.20;;;4.80;92.00;;;;;;4878142;29;20045;-81
2021/11/22 00:14:36;;;;;;;0.80;0.30;;;4.70;92.00;;;;;;4892923;29;20041;-81
2021/11/22 00:17:03;;;;;;;0.35;0.10;;;4.80;92.00;;;;;;4892255;29;20051;-81
2021/11/22 00:19:29;;;;;;;0.10;0.10;;;4.80;92.00;;;;;;4895633;29;20044;-81
2021/11/22 00:21:55;;;;;;;0.10;0.10;;;4.80;92.00;;;;;;4877539;29;20037;-81
2021/11/22 00:24:21;;;;;;;0.40;0.30;;;4.80;92.00;;;;;;4897143;29;20147;-81
2021/11/22 00:26:47;;;;;;;0.17;0.10;;;4.70;92.00;;;;;;4895324;29;20456;-81
2021/11/22 00:29:13;;;;;;;0.30;0.20;;;4.80;92.00;;;;;;4881553;29;20039;-81
2021/11/22 00:31:40;;;;;;;0.10;0.10;;;4.70;92.00;;;;;;4897758;29;20060;-81
2021/11/22 00:34:07;;;;;;;0.90;0.30;;;4.80;92.40;;;;;;4898059;29;20037;-81
2021/11/22 00:36:33;;;;;;;1.20;0.20;;;4.80;92.20;;;;;;4879686;29;20369;-81
2021/11/22 00:38:59;;;;;;;0.20;0.20;;;4.70;92.10;;;;;;4880943;29;20088;-81
2021/11/22 00:41:25;;;;;;;0.43;0.20;;;4.80;92.20;;;;;;4898231;29;20044;-81
2021/11/22 00:43:53;;;;;;;0.10;0.10;;;4.70;92.20;;;;;;4879644;29;20055;-81
2021/11/22 00:46:19;;;;;;;0.17;0.10;;;4.80;92.20;;;;;;4896909;29;20039;-81
2021/11/22 00:48:45;;;;;;;0.20;0.20;;;4.80;92.20;;;;;;4895069;29;20124;-81
2021/11/22 00:51:10;;;;;;;0.22;0.17;;;4.80;92.10;;;;;;4897857;29;20033;-81
2021/11/22 00:53:36;;;;;;;0.20;0.20;;;4.80;92.10;;;;;;4895754;29;20044;-81
2021/11/22 00:56:02;;;;;;;0.20;0.10;;;4.80;92.20;;;;;;4879542;29;20036;-81
2021/11/22 00:58:28;;;;;;;0.50;0.20;;;4.80;92.20;;;;;;4897121;29;20070;-81
2021/11/22 01:00:54;;;;;;;1.00;0.20;;;4.70;92.10;;;;;;4898130;29;20099;-81
2021/11/22 01:03:20;;;;;;;1.00;0.20;;;4.80;92.20;;;;;;4898213;29;20096;-80
2021/11/22 01:05:46;;;;;;;0.57;0.30;;;4.80;92.20;;;;;;4894731;29;20053;-81
2021/11/22 01:08:11;;;;;;;0.47;0.10;;;4.70;92.10;;;;;;4896129;29;20405;-80
2021/11/22 01:10:38;;;;;;;0.10;0.10;;;4.70;92.20;;;;;;4879770;29;20044;-81
2021/11/22 01:13:05;;;;;;;0.30;0.20;;;4.70;92.20;;;;;;4898595;29;20056;-80
2021/11/22 01:15:33;;;;;;;0.20;0.10;;;4.70;92.20;;;;;;4894475;29;20045;-81
2021/11/22 01:17:59;;;;;;;0.10;0.10;;;4.80;92.20;;;;;;4897663;29;20511;-81
2021/11/22 01:20:29;;;;;;;0.10;0.10;;;4.80;92.20;;;;;;4898093;29;20032;-81
2021/11/22 01:22:58;;;;;;;0.35;0.22;;;4.80;92.20;;;;;;4880339;29;20041;-81
2021/11/22 01:25:24;;;;;;;0.10;0.10;;;4.80;92.20;;;;;;4895141;29;20053;-81
2021/11/22 01:27:50;;;;;;;0.35;0.20;;;4.80;92.20;;;;;;4897579;29;20024;-80
2021/11/22 01:30:16;;;;;;;0.10;0.10;;;4.80;92.20;;;;;;4896303;29;20028;-80
2021/11/22 01:32:42;;;;;;;0.57;0.20;;;4.80;92.20;;;;;;4895816;29;20391;-80
2021/11/22 01:35:09;;;;;;;0.45;0.10;;;4.80;92.20;;;;;;4896616;29;20120;-81
2021/11/22 01:37:34;;;;;;;0.10;0.10;;;4.80;92.20;;;;;;4893078;29;20056;-81
2021/11/22 01:40:00;;;;;;;0.20;0.20;;;4.80;92.20;;;;;;4892967;29;20044;-81
2021/11/22 01:42:26;;;;;;;0.15;0.15;;;4.80;92.20;;;;;;4876820;29;20097;-80
2021/11/22 01:44:52;;;;;;;0.10;0.10;;;4.80;92.20;;;;;;4876938;29;20060;-80
2021/11/22 01:47:18;;;;;;;0.10;0.10;;;4.80;92.20;;;;;;4893474;29;20061;-81
2021/11/22 01:49:43;;;;;;;0.13;0.08;;;4.80;92.50;;;;;;4891965;29;20029;-81
2021/11/22 01:52:10;;;;;;;0.55;0.13;;;4.80;92.20;;;;;;4894730;29;20148;-81
2021/11/22 01:54:36;;;;;;;0.10;0.10;;;4.90;92.20;;;;;;4895840;29;20128;-81
2021/11/22 01:57:03;;;;;;;0.20;0.10;;;4.80;92.10;;;;;;4882632;29;20044;-80
2021/11/22 01:59:29;;;;;;;0.40;0.20;;;4.80;92.20;;;;;;4898172;29;20033;-81
2021/11/22 02:01:55;;;;;;;0.25;0.20;;;4.70;92.10;;;;;;4878260;29;20484;-80
2021/11/22 02:04:21;;;;;;;1.35;0.20;;;4.90;92.20;;;;;;4879872;29;20052;-80
2021/11/22 02:06:49;;;;;;;0.43;0.10;;;4.80;92.20;;;;;;4895240;29;20080;-81
2021/11/22 02:09:15;;;;;;;1.25;0.20;;;4.80;92.20;;;;;;4896677;29;20089;-80
2021/11/22 02:11:41;;;;;;;0.30;0.20;;;4.80;92.20;;;;;;4898477;29;20033;-81
2021/11/22 02:14:07;;;;;;;0.20;0.20;;;4.80;92.20;;;;;;4879679;29;20041;-80
2021/11/22 02:16:34;;;;;;;0.20;0.20;;;4.80;92.20;;;;;;4897016;29;20041;-80
2021/11/22 02:19:03;;;;;;;0.20;0.20;;;4.70;92.20;;;;;;4896686;29;20444;-80
2021/11/22 02:21:29;;;;;;;0.20;0.20;;;4.80;92.20;;;;;;4894313;29;20137;-80
2021/11/22 02:23:55;;;;;;;0.20;0.20;;;4.80;92.20;;;;;;4879714;29;20033;-80
2021/11/22 02:26:20;;;;;;;0.45;0.20;;;4.80;92.20;;;;;;4881532;29;20031;-81
2021/11/22 02:28:46;;;;;;;0.10;0.10;;;4.80;92.20;;;;;;4894467;29;20033;-81
2021/11/22 02:31:12;;;;;;;0.38;0.17;;;4.80;92.20;;;;;;4896709;29;20483;-81
2021/11/22 02:33:39;;;;;;;0.45;0.20;;;4.80;92.20;;;;;;4896839;29;20040;-81
2021/11/22 02:36:05;;;;;;;0.20;0.20;;;4.80;92.20;;;;;;4894196;29;20518;-80
2021/11/22 02:38:34;;;;;;;0.30;0.20;;;4.80;92.20;;;;;;4893853;29;20068;-81
2021/11/22 02:41:02;;;;;;;0.25;0.10;;;4.70;92.20;;;;;;4894932;29;20040;-80
2021/11/22 02:43:30;;;;;;;0.38;0.38;;;4.70;92.30;;;;;;4896600;29;20041;-81
2021/11/22 02:45:56;;;;;;;0.13;0.13;;;4.70;92.30;;;;;;4895323;29;20045;-80
2021/11/22 02:48:22;;;;;;;0.45;0.30;;;4.70;92.30;;;;;;4894381;29;20037;-81
2021/11/22 02:50:48;;;;;;;0.10;0.10;;;4.70;92.30;;;;;;4893854;29;20427;-80
2021/11/22 02:53:14;;;;;;;0.10;0.10;;;4.70;92.30;;;;;;4893029;29;20029;-81
2021/11/22 02:55:40;;;;;;;0.20;0.20;;;4.70;92.30;;;;;;4895973;29;20036;-81
2021/11/22 02:58:06;;;;;;;0.52;0.20;;;4.60;92.30;;;;;;4893732;29;20436;-81
2021/11/22 03:00:34;;;;;;;0.10;0.10;;;4.60;92.30;;;;;;4898641;29;20093;-80
2021/11/22 03:03:00;;;;;;;0.17;0.17;;;4.70;92.40;;;;;;4896119;29;20124;-80
2021/11/22 03:05:26;;;;;;;0.30;0.30;;;4.50;92.40;;;;;;4894706;29;20131;-81
2021/11/22 03:07:54;;;;;;;0.10;0.10;;;4.50;92.40;;;;;;4878131;29;20056;-80
2021/11/22 03:10:20;;;;;;;0.43;0.30;;;4.60;92.40;;;;;;4878006;29;20033;-80
2021/11/22 03:12:48;;;;;;;0.95;0.20;;;4.50;92.40;;;;;;4892724;29;20057;-80
2021/11/22 03:15:16;;;;;;;0.13;0.10;;;4.50;92.40;;;;;;4896131;29;20567;-80
2021/11/22 03:17:43;;;;;;;0.10;0.10;;;4.50;92.40;;;;;;4880501;29;20041;-80
2021/11/22 03:20:12;;;;;;;0.20;0.20;;;4.50;92.40;;;;;;4895018;29;20492;-81
2021/11/22 03:22:37;;;;;;;0.43;0.10;;;4.50;92.40;;;;;;4895779;29;20124;-81
2021/11/22 03:25:07;;;;;;;0.25;0.20;;;4.50;92.40;;;;;;4877162;29;20466;-80
2021/11/22 03:27:32;;;;;;;1.65;0.20;;;4.50;92.40;;;;;;4895829;29;20071;-80
2021/11/22 03:29:59;;;;;;;0.70;0.20;;;4.70;92.50;;;;;;4894637;29;20440;-81
2021/11/22 03:32:25;;;;;;;0.50;0.20;;;4.50;92.40;;;;;;4880301;29;20048;-81
2021/11/22 03:34:51;;;;;;;0.20;0.20;;;4.50;92.40;;;;;;4895697;29;20066;-80
2021/11/22 03:37:17;;;;;;;0.65;0.28;;;4.40;92.40;;;;;;4892842;29;20120;-81
2021/11/22 03:39:47;;;;;;;1.45;0.10;;;4.50;92.40;;;;;;4896191;29;20067;-81
2021/11/22 03:42:16;;;;;;;0.40;0.30;;;4.40;92.40;;;;;;4895582;29;20068;-80
2021/11/22 03:44:43;;;;;;;0.13;0.13;;;4.40;92.40;;;;;;4895746;29;20049;-81
2021/11/22 03:47:09;;;;;;;0.20;0.17;;;4.40;92.40;;;;;;4878299;29;20048;-81
2021/11/22 03:49:35;;;;;;;0.10;0.10;;;4.30;92.40;;;;;;4895147;29;20034;-80
2021/11/22 03:52:02;;;;;;;0.38;0.20;;;4.40;92.40;;;;;;4879489;29;20376;-80
2021/11/22 03:54:28;;;;;;;1.33;0.30;;;4.40;92.40;;;;;;4893816;29;20032;-81
2021/11/22 03:56:54;;;;;;;0.45;0.10;;;4.30;92.50;;;;;;4877865;29;20189;-80
2021/11/22 03:59:20;;;;;;;0.17;0.17;;;4.40;92.50;;;;;;4892391;29;20496;-81
2021/11/22 04:01:46;;;;;;;0.75;0.20;;;4.30;92.50;;;;;;4880600;29;20519;-80
2021/11/22 04:04:12;;;;;;;0.40;0.20;;;4.40;92.50;;;;;;4895364;29;20129;-80
2021/11/22 04:06:38;;;;;;;0.17;0.10;;;4.40;92.50;;;;;;4894318;29;20044;-80
2021/11/22 04:09:04;;;;;;;0.43;0.30;;;4.40;92.40;;;;;;4897157;29;20032;-80
2021/11/22 04:11:32;;;;;;;0.08;0.08;;;4.30;92.40;;;;;;4898603;29;20124;-80
2021/11/22 04:13:57;;;;;;;0.20;0.20;;;4.30;92.50;;;;;;4898443;29;20036;-80
2021/11/22 04:16:23;;;;;;;0.25;0.20;;;4.30;92.50;;;;;;4895730;29;20100;-79
2021/11/22 04:18:50;;;;;;;0.73;0.20;;;4.30;92.50;;;;;;4899793;29;20049;-80
2021/11/22 04:21:18;;;;;;;0.17;0.17;;;4.20;92.50;;;;;;4898567;29;20064;-80
2021/11/22 04:23:44;;;;;;;0.22;0.10;;;4.20;92.50;;;;;;4898633;29;20919;-80
2021/11/22 04:26:10;;;;;;;0.10;0.10;;;4.20;92.50;;;;;;4899957;29;20499;-80
2021/11/22 04:28:37;;;;;;;0.08;0.08;;;4.30;92.50;;;;;;4898648;29;20595;-80
2021/11/22 04:31:04;;;;;;;0.15;0.15;;;4.30;92.50;;;;;;4880636;29;20058;-80
2021/11/22 04:33:30;;;;;;;0.32;0.20;;;4.20;92.50;;;;;;4898672;29;20049;-80
2021/11/22 04:35:56;;;;;;;0.20;0.10;;;4.20;92.50;;;;;;4898421;29;20120;-80
2021/11/22 04:38:22;;;;;;;0.10;0.10;;;4.20;92.50;;;;;;4896844;29;20211;-81
2021/11/22 04:40:48;;;;;;;0.85;0.32;;;4.20;92.50;;;;;;4880312;29;20128;-80
2021/11/22 04:43:13;;;;;;;0.63;0.20;;;4.20;92.50;;;;;;4895812;29;20044;-80
2021/11/22 04:45:39;;;;;;;1.15;0.10;;;4.30;92.50;;;;;;4899990;29;20044;-80
2021/11/22 04:48:06;;;;;;;0.35;0.17;;;4.30;92.50;;;;;;4899504;29;20044;-79
2021/11/22 04:50:34;;;;;;;0.10;0.10;;;4.20;92.50;;;;;;4895667;29;20049;-80
2021/11/22 04:53:01;;;;;;;0.35;0.20;;;4.20;92.50;;;;;;4880055;29;20033;-80
2021/11/22 04:55:27;;;;;;;1.08;0.10;;;4.20;92.50;;;;;;4879875;29;20113;-81
2021/11/22 04:57:53;;;;;;;0.17;0.17;;;4.20;92.50;;;;;;4896272;29;20045;-81
2021/11/22 05:00:22;;;;;;;0.10;0.10;;;4.20;92.50;;;;;;4896590;29;20052;-81
2021/11/22 05:02:50;;;;;;;0.60;0.10;;;4.10;92.40;;;;;;4898214;29;20051;-80
2021/11/22 05:05:17;;;;;;;0.30;0.13;;;4.10;92.50;;;;;;4879610;29;20053;-80
2021/11/22 05:07:43;;;;;;;0.10;0.10;;;4.10;92.50;;;;;;4893605;29;20051;-81
2021/11/22 05:10:10;;;;;;;0.35;0.10;;;4.10;92.50;;;;;;4891984;29;20091;-80
2021/11/22 05:12:36;;;;;;;0.20;0.20;;;4.10;92.60;;;;;;4879569;29;20037;-80
2021/11/22 05:15:04;;;;;;;0.25;0.10;;;4.10;92.60;;;;;;4879166;29;20523;-80
2021/11/22 05:17:29;;;;;;;0.10;0.10;;;4.10;92.60;;;;;;4891763;29;20040;-80
2021/11/22 05:19:55;;;;;;;0.20;0.20;;;4.00;92.50;;;;;;4899354;29;20046;-80
2021/11/22 05:22:21;;;;;;;0.10;0.10;;;4.10;92.60;;;;;;4895861;29;20045;-80
2021/11/22 05:24:49;;;;;;;0.13;0.13;;;4.00;92.60;;;;;;4877636;29;20068;-80
2021/11/22 05:27:18;;;;;;;0.10;0.10;;;4.10;92.60;;;;;;4879620;29;20041;-80
2021/11/22 05:29:44;;;;;;;0.08;0.08;;;4.00;92.50;;;;;;4896226;29;20123;-80
2021/11/22 05:32:10;;;;;;;0.10;0.10;;;4.00;92.50;;;;;;4894982;29;20116;-80
2021/11/22 05:34:37;;;;;;;0.85;0.15;;;4.10;92.60;;;;;;4897450;29;20044;-80
2021/11/22 05:37:03;;;;;;;0.40;0.30;;;4.00;92.50;;;;;;4897411;29;20088;-80
2021/11/22 05:39:29;;;;;;;0.10;0.10;;;4.10;92.60;;;;;;4897185;29;20073;-80
2021/11/22 05:41:55;;;;;;;0.10;0.10;;;4.10;92.60;;;;;;4895943;29;20037;-80
2021/11/22 05:44:21;;;;;;;0.10;0.10;;;4.10;92.50;;;;;;4896223;29;20522;-79
2021/11/22 05:46:50;;;;;;;0.35;0.17;;;4.00;92.50;;;;;;4897295;29;20033;-80
2021/11/22 05:49:16;;;;;;;0.32;0.13;;;4.10;92.60;;;;;;4894816;29;20117;-79
2021/11/22 05:51:44;;;;;;;0.70;0.20;;;4.00;92.50;;;;;;4878926;29;20033;-79
2021/11/22 05:54:11;;;;;;;0.30;0.10;;;4.00;92.50;;;;;;4894027;29;20044;-79
2021/11/22 05:56:37;;;;;;;0.55;0.20;;;4.00;92.50;;;;;;4879979;29;20033;-81
2021/11/22 05:59:04;;;;;;;0.15;0.15;;;4.00;92.60;;;;;;4891546;29;20040;-81
2021/11/22 06:01:30;;;;;;;0.28;0.20;;;4.00;92.60;;;;;;4892351;29;20052;-81
2021/11/22 06:03:56;;;;;;;0.10;0.10;;;4.00;92.60;;;;;;4878171;29;20037;-81
2021/11/22 06:06:22;;;;;;;0.00;0.00;;;4.00;92.60;;;;;;4878399;29;20033;-81
2021/11/22 06:08:47;;;;;;;0.10;0.10;;;4.00;92.60;;;;;;4877135;29;20487;-81
2021/11/22 06:11:13;;;;;;;0.25;0.10;;;4.10;92.60;;;;;;4892449;29;20041;-80
2021/11/22 06:13:39;;;;;;;0.20;0.20;;;4.00;92.50;;;;;;4891911;29;20033;-80
2021/11/22 06:16:05;;;;;;;0.20;0.13;;;4.00;92.50;;;;;;4878238;29;20387;-80
2021/11/22 06:18:31;;;;;;;0.15;0.15;;;4.00;92.50;;;;;;4891764;29;20044;-81
2021/11/22 06:20:56;;;;;;;0.63;0.20;;;4.00;92.50;;;;;;4891706;29;20124;-81
2021/11/22 06:23:22;;;;;;;0.20;0.20;;;3.90;92.50;;;;;;4877740;29;20462;-81
2021/11/22 06:25:48;;;;;;;0.52;0.20;;;3.90;92.50;;;;;;4877880;29;20105;-80
2021/11/22 06:28:14;;;;;;;0.10;0.10;;;3.90;92.50;;;;;;4891900;29;20041;-81
2021/11/22 06:30:40;;;;;;;0.13;0.10;;;3.90;92.50;;;;;;4876450;29;20037;-80
2021/11/22 06:33:07;;;;;;;0.10;0.10;;;3.90;92.50;;;;;;4892034;29;20033;-81
2021/11/22 06:35:34;;;;;;;0.32;0.30;;;3.90;92.60;;;;;;4895626;29;20191;-79
2021/11/22 06:38:01;;;;;;;0.10;0.10;;;3.80;92.60;;;;;;4896307;29;20033;-82
2021/11/22 06:40:30;;;;;;;0.20;0.10;;;3.90;92.60;;;;;;4895565;29;20040;-80
2021/11/22 06:42:56;;;;;;;0.10;0.10;;;3.90;92.60;;;;;;4879417;29;20600;-78
2021/11/22 06:45:21;;;;;;;0.38;0.10;;;3.80;92.60;;;;;;4896656;29;20041;-77
2021/11/22 06:47:47;;;;;;;0.10;0.10;;;3.70;92.60;;;;;;4895982;29;20430;-78
2021/11/22 06:50:15;;;;;;;0.10;0.10;;;3.80;92.70;;;;;;4881531;29;20056;-79
2021/11/22 06:52:41;;;;;;;0.10;0.10;;;3.70;92.60;;;;;;4896557;29;20399;-79
2021/11/22 06:55:07;;;;;;;0.20;0.20;;;3.70;92.60;;;;;;4897863;29;20127;-80
2021/11/22 06:57:33;;;;;;;0.28;0.28;;;3.70;92.70;;;;;;4896639;29;20040;-81
2021/11/22 06:59:59;;;;;;;0.10;0.10;;;3.60;92.70;;;;;;4896299;29;20048;-79
2021/11/22 07:02:25;;;;;;;1.98;0.20;;;3.60;92.70;;;;;;4877654;29;20066;-81
2021/11/22 07:04:51;;;;;;;0.20;0.20;;;3.60;92.70;;;;;;4896727;29;20127;-80
2021/11/22 07:07:18;;;;;;;0.10;0.10;;;3.40;92.70;;;;;;4896485;29;20092;-80
2021/11/22 07:09:44;;;;;;;0.20;0.20;;;3.50;92.80;;;;;;4901788;29;20052;-80
2021/11/22 07:12:10;;;;;;;0.20;0.20;;;3.50;92.80;;;;;;4894791;29;20510;-80
2021/11/22 07:14:39;;;;;;;0.40;0.15;;;3.50;92.80;;;;;;4894663;29;20044;-80
2021/11/22 07:17:05;;;;;;;0.43;0.20;;;3.40;92.80;;;;;;4895790;29;20037;-80
2021/11/22 07:19:31;;;;;;;0.65;0.20;;;3.40;92.80;;;;;;4893438;29;20041;-80
2021/11/22 07:22:00;;;;;;;0.32;0.20;;;3.40;92.80;;;;;;4877118;29;20045;-80
2021/11/22 07:24:27;;;;;;;0.15;0.15;;;3.40;92.90;;;;;;4876125;29;20077;-80
2021/11/22 07:26:53;;;;;;;0.10;0.10;;;3.40;92.90;;;;;;4877141;29;20037;-80
2021/11/22 07:29:19;;;;;;;0.00;0.00;;;3.30;92.80;;;;;;4890950;29;20053;-80
2021/11/22 07:31:45;;;;;;;0.28;0.10;;;3.40;92.80;;;;;;4890776;29;20041;-79
2021/11/22 07:34:10;;;;;;;0.10;0.10;;;3.30;92.80;;;;;;4892848;29;20125;-78
2021/11/22 07:36:36;;;;;;;0.10;0.10;;;3.30;92.80;;;;;;4894656;29;20045;-77
2021/11/22 07:39:03;;;;;;;0.08;0.08;;;3.20;92.80;;;;;;4897643;29;20037;-76
2021/11/22 07:41:29;;;;;;;0.10;0.10;;;3.20;92.90;;;;;;4885026;29;20544;-80
2021/11/22 07:43:55;;;;;;;0.17;0.17;;;3.20;92.90;;;;;;4898100;29;20041;-80
2021/11/22 07:46:20;;;;;;;0.20;0.20;;;3.20;92.90;;;;;;4897655;29;20048;-80
2021/11/22 07:48:47;;;;;;;0.08;0.03;;;3.10;92.90;;;;;;4901665;29;20044;-79
2021/11/22 07:51:13;;;;;;;0.10;0.10;;;3.10;92.90;;;;;;4903577;29;20081;-79
2021/11/22 07:53:39;;;;;;;0.10;0.10;;;3.20;92.90;;;;;;4905642;29;20045;-80
2021/11/22 07:56:06;;;;;;;0.10;0.10;;;3.00;92.90;;;;;;4888105;29;20053;-78
2021/11/22 07:58:37;;;;;;;0.20;0.10;;;3.10;92.90;;;;;;4895181;29;20056;-80
2021/11/22 08:01:03;;;;;;;0.10;0.10;;;3.10;92.90;;;;;;4877895;29;20045;-80
2021/11/22 08:03:29;;;;;;;0.30;0.20;;;3.00;92.90;;;;;;4880917;29;20055;-79
2021/11/22 08:05:57;;;;;;;0.10;0.10;;;3.00;92.90;;;;;;4895726;29;20053;-77
2021/11/22 08:08:26;;;;;;;0.10;0.10;;;3.10;92.90;;;;;;4881250;29;20034;-77
2021/11/22 08:11:06;;;;;;;0.20;0.20;;;3.10;92.90;;;;;;4881238;29;20555;-77
2021/11/22 08:13:33;;;;;;;0.10;0.10;;;3.20;92.90;;;;;;4899262;29;20043;-76
2021/11/22 08:16:02;;;;;;;0.20;0.13;;;3.20;92.90;;;;;;4882065;29;20132;-77
2021/11/22 08:18:28;;;;;;;0.10;0.10;;;3.20;92.80;;;;;;4881390;29;20055;-76
2021/11/22 08:20:55;;;;;;;0.20;0.20;;;3.20;92.90;;;;;;4883610;29;20138;-76
2021/11/22 08:23:21;;;;;;;0.10;0.10;;;3.20;92.80;;;;;;4898612;29;20064;-76
2021/11/22 08:25:46;;;;;;;1.20;0.10;;;3.20;92.80;;;;;;4900120;29;20076;-76
2021/11/22 08:28:12;;;;;;;0.10;0.10;;;3.20;92.80;;;;;;4880971;29;20048;-76
2021/11/22 08:30:38;;;;;;;0.15;0.10;;;3.30;92.80;;;;;;4896625;29;20041;-76
2021/11/22 08:33:04;;;;;;;0.32;0.20;;;3.30;92.80;;;;;;4898788;29;20092;-79
2021/11/22 08:35:31;;;;;;;0.20;0.17;;;3.40;92.80;;;;;;4897413;29;20053;-78
2021/11/22 08:37:59;;;;;;;0.15;0.10;;;3.40;92.70;;;;;;4898128;29;20041;-79
2021/11/22 08:40:25;;;;;;;0.28;0.10;;;3.50;92.70;;;;;;4898146;29;20048;-78
2021/11/22 08:42:53;;;;;;;0.25;0.10;;;3.60;92.60;;;;;;4898411;29;20052;-79
2021/11/22 08:45:19;;;;;;;0.22;0.15;;;3.70;92.60;;;;;;4897259;29;20483;-76
2021/11/22 08:47:45;;;;;;;0.20;0.15;;;3.80;92.50;;;;;;4896574;29;20148;-79
2021/11/22 08:50:13;;;;;;;0.57;0.17;;;3.90;92.40;;;;;;4898575;29;20047;-78
2021/11/22 08:52:40;;;;;;;0.55;0.20;;;4.10;92.40;;;;;;4880777;29;20033;-78
2021/11/22 08:55:15;;;;;;;0.20;0.20;;;4.00;92.30;;;;;;4898595;29;20064;-80
2021/11/22 08:57:42;;;;;;;0.10;0.10;;;4.10;92.20;;;;;;4892312;29;20068;-78
2021/11/22 09:00:14;;;;;;;0.60;0.30;;;4.20;92.10;;;;;;4879354;29;20128;-77
2021/11/22 09:02:40;;;;;;;0.25;0.13;;;4.30;92.10;;;;;;4844782;29;20540;-77
2021/11/22 09:05:06;;;;;;;0.43;0.20;;;4.40;92.10;;;;;;4859432;29;20154;-77
2021/11/22 09:07:32;;;;;;;0.63;0.22;;;4.50;92.10;;;;;;4858766;29;20554;-77
2021/11/22 09:09:58;;;;;;;0.30;0.20;;;4.40;92.00;;;;;;4859731;29;20086;-76
2021/11/22 09:12:23;;;;;;;0.82;0.30;;;4.50;92.00;;;;;;4858719;29;20495;-78
2021/11/22 09:14:49;;;;;;;0.60;0.20;;;4.60;91.90;;;;;;4858649;29;20048;-78
2021/11/22 09:17:17;;;;;;;0.20;0.20;;;4.60;91.90;;;;;;4862978;29;20076;-79
2021/11/22 09:19:43;;;;;;;0.10;0.10;;;4.70;91.80;;;;;;4864589;29;20129;-79
2021/11/22 09:22:11;;;;;;;0.47;0.30;;;4.70;91.80;;;;;;4866989;29;20037;-79
2021/11/22 09:24:39;;;;;;;0.17;0.17;;;4.80;91.70;;;;;;4865731;29;20049;-78
2021/11/22 09:27:05;;;;;;;0.25;0.20;;;4.90;91.70;;;;;;4859453;29;20045;-78
2021/11/22 09:29:31;;;;;;;0.20;0.20;;;4.90;91.70;;;;;;4893251;29;20040;-78
2021/11/22 09:31:57;;;;;;;0.30;0.30;;;5.00;91.70;;;;;;4879383;29;20181;-78
2021/11/22 09:34:22;;;;;;;0.25;0.20;;;5.10;91.60;;;;;;4896083;29;20040;-77
2021/11/22 09:36:48;;;;;;;0.28;0.20;;;5.10;91.60;;;;;;4897800;29;20047;-77
2021/11/22 09:39:17;;;;;;;0.30;0.15;;;5.10;91.60;;;;;;4880438;29;20934;-76
2021/11/22 09:41:46;;;;;;;0.17;0.17;;;5.20;91.60;;;;;;4896002;29;20484;-76
2021/11/22 09:44:11;;;;;;;0.22;0.20;;;5.20;91.50;;;;;;4880493;29;20500;-78
2021/11/22 09:46:37;;;;;;;0.30;0.20;;;5.20;91.50;;;;;;4900112;29;20064;-79
2021/11/22 09:49:05;;;;;;;0.30;0.13;;;5.30;91.50;;;;;;4898161;29;20037;-77
2021/11/22 09:51:31;;;;;;;0.28;0.20;;;5.30;91.40;;;;;;4897314;29;20586;-78
2021/11/22 09:53:57;;;;;;;1.17;0.30;;;5.40;91.40;;;;;;4893196;29;20037;-78
2021/11/22 09:56:26;;;;;;;0.52;0.20;;;5.40;91.40;;;;;;4878460;29;20048;-81
2021/11/22 09:58:52;;;;;;;0.20;0.20;;;5.30;91.40;;;;;;4893090;29;20844;-80
2021/11/22 10:01:19;;;;;;;0.10;0.10;;;5.50;91.40;;;;;;4879101;29;20040;-79
2021/11/22 10:04:06;;;;;;;0.45;0.40;;;5.50;91.40;;;;;;4894684;29;20040;-76
2021/11/22 10:06:52;;;;;;;0.20;0.20;;;5.60;91.40;;;;;;4878512;29;20070;-76
2021/11/22 10:09:40;;;;;;;0.17;0.10;;;5.60;91.40;;;;;;4878564;29;20038;-78
2021/11/22 10:12:12;;;;;;;0.20;0.20;;;5.60;91.30;;;;;;4879317;29;20033;-78
2021/11/22 10:14:49;;;;;;;0.15;0.15;;;5.70;91.30;;;;;;4894351;29;20045;-77
2021/11/22 10:17:25;;;;;;;0.30;0.20;;;5.70;91.30;;;;;;4894507;29;21029;-77
2021/11/22 10:20:12;;;;;;;0.65;0.15;;;5.70;91.30;;;;;;4897259;29;20093;-77
2021/11/22 10:23:04;;;;;;;0.63;0.17;;;5.80;91.30;;;;;;4894289;29;20045;-77
2021/11/22 10:25:36;;;;;;;0.45;0.30;;;5.90;91.20;;;;;;4896552;29;20056;-78
2021/11/22 10:28:07;;;;;;;0.20;0.20;;;5.90;91.20;;;;;;4895453;29;20033;-79
2021/11/22 10:30:36;;;;;;;0.20;0.20;;;5.90;91.20;;;;;;4880493;29;20387;-79
2021/11/22 10:33:05;;;;;;;0.30;0.13;;;6.00;91.20;;;;;;4898368;29;20316;-78
2021/11/22 10:35:33;;;;;;;1.60;0.20;;;6.00;91.10;;;;;;4894940;29;20487;-79
2021/11/22 10:38:03;;;;;;;0.10;0.10;;;6.00;91.00;;;;;;4897635;29;20040;-79
2021/11/22 10:40:31;;;;;;;0.20;0.13;;;6.10;91.00;;;;;;4878954;29;20135;-78
2021/11/22 10:42:58;;;;;;;0.10;0.10;;;6.10;91.10;;;;;;4877168;29;20100;-79
2021/11/22 10:45:32;;;;;;;0.88;0.10;;;6.10;91.00;;;;;;4876863;29;20087;-78
2021/11/22 10:48:21;;;;;;;0.13;0.13;;;6.10;91.10;;;;;;4879227;29;20065;-78
2021/11/22 10:50:51;;;;;;;0.10;0.10;;;6.20;91.10;;;;;;4879408;29;20033;-78
2021/11/22 10:53:26;;;;;;;0.70;0.10;;;6.20;91.10;;;;;;4896683;29;20029;-80
2021/11/22 10:55:52;;;;;;;0.10;0.10;;;6.30;91.00;;;;;;4894353;29;20080;-76
2021/11/22 10:58:38;;;;;;;0.00;0.00;;;6.30;91.00;;;;;;4896410;29;20925;-76
2021/11/22 11:01:20;;;;;;;0.90;0.10;;;6.40;91.00;;;;;;4893497;29;20119;-80
2021/11/22 11:03:57;;;;;;;0.25;0.10;;;6.50;91.00;;;;;;4897216;29;20051;-80
2021/11/22 11:06:42;;;;;;;0.40;0.10;;;6.40;90.90;;;;;;4894032;29;20053;-80
2021/11/22 11:09:23;;;;;;;0.17;0.10;;;6.40;90.90;;;;;;4894527;29;20058;-80
2021/11/22 11:11:56;;;;;;;0.10;0.10;;;6.50;90.90;;;;;;4878205;29;20042;-80
2021/11/22 11:14:22;;;;;;;0.10;0.10;;;6.50;90.80;;;;;;4896300;29;20119;-80
2021/11/22 11:16:48;;;;;;;0.08;0.08;;;6.60;90.80;;;;;;4893431;29;20071;-80
2021/11/22 11:19:18;;;;;;;0.03;0.03;;;6.60;90.70;;;;;;4891542;29;20453;-79
2021/11/22 11:21:47;;;;;;;0.10;0.10;;;6.60;90.70;;;;;;4875845;29;20575;-80
2021/11/22 11:24:15;;;;;;;0.00;0.00;;;6.60;90.60;;;;;;4877374;29;20037;-80
2021/11/22 11:26:43;;;;;;;0.10;0.10;;;6.70;90.90;;;;;;4890949;29;20041;-79
2021/11/22 11:29:09;;;;;;;0.10;0.10;;;6.70;90.60;;;;;;4891326;29;20060;-80
2021/11/22 11:31:37;;;;;;;0.30;0.10;;;6.70;90.50;;;;;;4875672;29;20459;-79
2021/11/22 11:34:06;;;;;;;0.15;0.10;;;6.80;90.50;;;;;;4876922;29;20092;-80
2021/11/22 11:36:58;;;;;;;0.17;0.10;;;6.80;90.50;;;;;;4893991;29;20035;-79
2021/11/22 11:39:53;;;;;;;0.30;0.10;;;6.90;90.40;;;;;;4894121;29;20036;-80
2021/11/22 11:42:49;;;;;;;0.10;0.10;;;7.00;90.40;;;;;;4895578;29;20080;-79
2021/11/22 11:45:33;;;;;;;0.00;0.00;;;7.00;90.30;;;;;;4877838;29;20045;-79
2021/11/22 11:48:39;;;;;;;0.15;0.10;;;7.10;90.20;;;;;;4894543;29;20029;-80
2021/11/22 11:51:08;;;;;;;0.10;0.10;;;7.20;90.20;;;;;;4893463;29;20049;-79
2021/11/22 11:53:35;;;;;;;0.10;0.10;;;7.30;90.10;;;;;;4895373;29;20492;-80
2021/11/22 11:56:11;;;;;;;0.30;0.10;;;7.40;90.10;;;;;;4895965;29;20061;-79
2021/11/22 11:58:37;;;;;;;0.65;0.10;;;7.50;90.00;;;;;;4878705;29;20084;-79
2021/11/22 12:01:20;;;;;;;0.10;0.10;;;7.50;89.90;;;;;;4896248;29;20132;-82
2021/11/22 12:04:06;;;;;;;0.00;0.00;;;7.60;89.80;;;;;;4857967;29;20091;-83
2021/11/22 12:06:46;;;;;;;0.65;0.22;;;7.60;89.60;;;;;;4842686;29;20053;-79
2021/11/22 12:09:27;;;;;;;0.45;0.10;;;7.90;89.50;;;;;;4845223;29;20420;-81
2021/11/22 12:11:53;;;;;;;0.10;0.10;;;7.90;89.20;;;;;;4861135;29;20068;-80
2021/11/22 12:14:55;;;;;;;0.30;0.10;;;8.00;89.10;;;;;;4861953;29;20072;-83
2021/11/22 12:18:01;;;;;;;0.10;0.10;;;8.00;88.90;;;;;;4874585;29;20053;-82
2021/11/22 12:20:43;;;;;;;0.10;0.10;;;8.10;88.70;;;;;;4862415;29;20197;-83
2021/11/22 12:23:14;;;;;;;1.48;0.10;;;8.20;88.60;;;;;;4862928;29;20124;-81
2021/11/22 12:25:45;;;;;;;0.30;0.10;;;8.20;88.30;;;;;;4863215;29;20053;-79
2021/11/22 12:28:34;;;;;;;0.73;0.20;;;8.30;88.30;;;;;;4858162;29;20043;-79
2021/11/22 12:31:16;;;;;;;0.28;0.10;;;8.20;88.20;;;;;;4881179;29;20044;-80
2021/11/22 12:33:45;;;;;;;1.13;0.00;;;8.40;88.40;;;;;;4881137;29;20151;-79
2021/11/22 12:36:32;;;;;;;0.10;0.10;;;8.40;88.10;;;;;;4881108;29;20043;-79
2021/11/22 12:39:06;;;;;;;0.32;0.20;;;8.50;88.00;;;;;;4896878;29;20506;-79
2021/11/22 12:41:38;;;;;;;0.95;0.13;;;8.50;87.90;;;;;;4897132;29;20533;-78
2021/11/22 12:44:13;;;;;;;0.32;0.20;;;8.60;87.70;;;;;;4881318;29;20033;-79
2021/11/22 12:46:47;;;;;;;0.57;0.10;;;8.60;87.50;;;;;;4896380;29;20057;-80
2021/11/22 12:49:29;;;;;;;0.10;0.10;;;8.80;87.40;;;;;;4881331;29;20036;-78
2021/11/22 12:52:10;;;;;;;0.03;0.03;;;8.80;87.20;;;;;;4898856;29;20491;-79
2021/11/22 12:54:48;;;;;;;0.25;0.10;;;8.80;87.20;;;;;;4880519;29;20040;-79
2021/11/22 12:57:30;;;;;;;0.30;0.13;;;8.90;87.10;;;;;;4881622;29;20052;-78
2021/11/22 13:00:31;;;;;;;0.10;0.10;;;8.80;87.10;;;;;;4880947;29;20052;-81
2021/11/22 13:03:05;;;;;;;0.00;0.00;;;8.90;87.20;;;;;;4880578;29;20815;-80
2021/11/22 13:05:55;;;;;;;0.40;0.10;;;8.90;87.00;;;;;;4897393;29;20441;-82
2021/11/22 13:08:39;;;;;;;0.17;0.10;;;8.90;86.90;;;;;;4882661;29;20033;-80